Ana Sayfa
METAR-TAF:

METAR-TAF

Havaalanları :

Johor Bahru, Malezya

Enlem: 01-38N, Boylam: 103-40E, yükseklik: 37 m

Güncel hava durumu gözlemi

Rapor saat 23:00 UTC de 1 saat ve 6 dakika önce yapıldı.
Rüzgar değişken yönden 2 kt
Sıcaklık 25°C
Nem 94%
Basınç 1009 hPa
Görüş mesafesi 10 km veya daha fazla
2300 ft yükseklikte az bulutlu

METAR: WMKJ 272300Z VRB02KT 9999 FEW023 25/24 Q1009

Saat: 08:06 (00:06 UTC)

Tahmin

Rapor saat 23:00 UTC de 1 saat ve 6 dakika önce yapıldı.
Ayın 28'si saat 00 UTC'den ayın 29'si saat 00 UTC'ye kadar geçerli Tahmin
Rüzgar kuzeydoğudan 8 kt
Görüş mesafesi 10 km veya daha fazla
1800 ft yükseklikte az bulutlu
Dönüşüyor
ayın 28'si saat 10 UTC'den ayın 28'si saat 12 UTC'ye kadar
Rüzgar kuzeydoğudan 5 kt
2300 ft yükseklikte az bulutlu

TAF: WMKJ 272300Z 2800/2900 05008KT 9999 FEW018 BECMG 2810/2812 04005KT FEW023

4.000'den fazla havaalanı için hava durumu gözlemleri ve tahminleri (METAR ve TAF raporları).

Kullanılabilir istasyonlar harita üzerinde sarı ve kırmızı noktalarla gösterilir.

İstasyonun adını görmek için fareyi noktanın üzerinde gezdirin.

Sonrasında hava gözlem ve tahminlerini görmek için tıklayın.

Haritayı değiştirmek için: yaklaştırmak için siyah artı işaretli yeşil düğmeye ve uzaklaştırmak için de eksi işaretli düğmeye hızla tıklayın; bitişik haritalar için yeşil okları kullanın.


METAR-TAF: